createdAt,value
2019-03-31T00:00:42.439Z,92.10
2019-03-31T00:01:42.375Z,92.72
2019-03-31T00:02:42.413Z,92.51
2019-03-31T00:03:42.387Z,92.51
2019-03-31T00:04:42.339Z,92.51
2019-03-31T00:05:42.361Z,92.61
2019-03-31T00:06:42.385Z,91.69
2019-03-31T00:07:42.308Z,92.21
2019-03-31T00:08:42.288Z,90.76
2019-03-31T00:09:42.292Z,91.07
2019-03-31T00:10:42.269Z,90.97
2019-03-31T00:11:42.280Z,90.76
2019-03-31T00:12:42.331Z,90.76
2019-03-31T00:13:42.253Z,91.07
2019-03-31T00:14:42.256Z,90.76
2019-03-31T00:15:42.271Z,90.86
2019-03-31T00:16:42.212Z,90.86
2019-03-31T00:17:42.226Z,90.66
2019-03-31T00:18:42.186Z,90.97
2019-03-31T00:19:42.223Z,90.91
2019-03-31T00:20:42.176Z,90.45
2019-03-31T00:21:42.167Z,90.14
2019-03-31T00:22:42.163Z,90.86
2019-03-31T00:23:42.155Z,90.39
2019-03-31T00:24:42.270Z,90.35
2019-03-31T00:25:42.118Z,89.98
2019-03-31T00:26:42.097Z,90.49
2019-03-31T00:27:43.458Z,90.28
2019-03-31T00:28:42.081Z,90.39
2019-03-31T00:29:42.599Z,90.59
2019-03-31T00:30:42.286Z,90.28
2019-03-31T00:31:42.046Z,90.80
2019-03-31T00:32:42.149Z,90.59
2019-03-31T00:33:42.017Z,90.91
2019-03-31T00:34:42.032Z,90.80
2019-03-31T00:35:42.005Z,89.98
2019-03-31T00:36:41.983Z,90.49
2019-03-31T00:37:42.051Z,90.70
2019-03-31T00:38:41.966Z,89.87
2019-03-31T00:39:41.973Z,89.67
2019-03-31T00:40:42.036Z,89.87
2019-03-31T00:41:41.938Z,89.56
2019-03-31T00:42:41.926Z,89.25
2019-03-31T00:43:41.958Z,89.46
2019-03-31T00:44:41.909Z,89.36
2019-03-31T00:45:41.888Z,89.25
2019-03-31T00:46:41.907Z,89.25
2019-03-31T00:47:41.873Z,89.15
2019-03-31T00:48:41.905Z,89.56
2019-03-31T00:49:42.184Z,89.36
2019-03-31T00:50:42.084Z,89.36
2019-03-31T00:51:42.520Z,88.95
2019-03-31T00:52:41.823Z,89.36
2019-03-31T00:53:41.803Z,89.36
2019-03-31T00:54:41.795Z,88.95
2019-03-31T00:55:41.773Z,89.36
2019-03-31T00:56:41.777Z,89.56
2019-03-31T00:57:41.783Z,89.77
2019-03-31T00:58:41.747Z,89.25
2019-03-31T00:59:41.755Z,89.36
2019-03-31T01:00:41.725Z,89.56
2019-03-31T01:01:41.721Z,89.25
2019-03-31T01:02:41.701Z,89.05
2019-03-31T01:03:41.725Z,88.95
2019-03-31T01:04:41.680Z,89.46
2019-03-31T01:05:41.675Z,89.46
2019-03-31T01:06:41.678Z,89.46
2019-03-31T01:07:41.651Z,89.67
2019-03-31T01:08:41.640Z,89.67
2019-03-31T01:09:41.653Z,89.77
2019-03-31T01:10:41.616Z,89.67
2019-03-31T01:11:41.641Z,89.25
2019-03-31T01:12:41.598Z,89.25
2019-03-31T01:13:41.588Z,88.84
2019-03-31T01:14:41.624Z,89.25
2019-03-31T01:15:41.563Z,89.56
2019-03-31T01:16:41.559Z,89.15
2019-03-31T01:17:41.603Z,89.36
2019-03-31T01:18:41.534Z,89.25
2019-03-31T01:19:41.606Z,89.05
2019-03-31T01:20:41.523Z,89.25
2019-03-31T01:21:41.500Z,88.95
2019-03-31T01:22:41.500Z,89.05
2019-03-31T01:23:41.482Z,89.46
2019-03-31T01:24:41.470Z,89.15
2019-03-31T01:25:41.499Z,89.15
2019-03-31T01:26:41.468Z,89.46
2019-03-31T01:27:41.443Z,89.32
2019-03-31T01:28:41.421Z,88.90
2019-03-31T01:29:41.425Z,89.11
2019-03-31T01:30:41.403Z,89.22
2019-03-31T01:31:50.352Z,89.32
2019-03-31T01:32:42.380Z,89.22
2019-03-31T01:33:41.393Z,89.01
2019-03-31T01:34:41.360Z,88.90
2019-03-31T01:35:41.360Z,88.49
2019-03-31T01:36:41.339Z,88.18
2019-03-31T01:37:41.346Z,88.49
2019-03-31T01:38:41.315Z,88.08
2019-03-31T01:39:41.316Z,88.18
2019-03-31T01:40:41.320Z,88.39
2019-03-31T01:41:41.286Z,88.14
2019-03-31T01:42:41.314Z,88.08
2019-03-31T01:43:41.263Z,86.94
2019-03-31T01:44:41.259Z,87.15
2019-03-31T01:45:41.252Z,86.90
2019-03-31T01:46:41.240Z,87.21
2019-03-31T01:47:41.225Z,87.52
2019-03-31T01:48:41.265Z,87.11
2019-03-31T01:49:41.198Z,87.01
2019-03-31T01:50:41.191Z,86.60
2019-03-31T01:51:41.173Z,87.32
2019-03-31T01:52:41.164Z,87.11
2019-03-31T01:53:41.151Z,87.32
2019-03-31T01:54:41.225Z,87.63
2019-03-31T01:55:41.142Z,87.52
2019-03-31T01:56:44.589Z,87.83
2019-03-31T01:57:41.116Z,88.35
2019-03-31T01:58:41.095Z,88.35
2019-03-31T01:59:41.086Z,88.24
2019-03-31T02:00:41.111Z,88.90
2019-03-31T02:01:41.069Z,88.65
2019-03-31T02:02:41.084Z,88.56
2019-03-31T02:03:41.049Z,88.35
2019-03-31T02:04:41.039Z,88.56
2019-03-31T02:05:41.027Z,88.56
2019-03-31T02:06:41.062Z,88.56
2019-03-31T02:07:41.038Z,88.56
2019-03-31T02:08:41.003Z,88.65
2019-03-31T02:09:40.984Z,88.56
2019-03-31T02:10:40.985Z,88.24
2019-03-31T02:11:40.958Z,88.65
2019-03-31T02:12:40.966Z,88.65
2019-03-31T02:13:40.959Z,88.56
2019-03-31T02:14:40.949Z,88.35
2019-03-31T02:15:40.921Z,88.35
2019-03-31T02:16:40.916Z,88.24
2019-03-31T02:17:40.926Z,88.24
2019-03-31T02:18:40.889Z,88.04
2019-03-31T02:19:40.874Z,87.93
2019-03-31T02:20:40.863Z,87.52
2019-03-31T02:21:40.869Z,87.63
2019-03-31T02:22:40.855Z,87.21
2019-03-31T02:23:40.862Z,87.42
2019-03-31T02:24:40.828Z,87.73
2019-03-31T02:25:40.814Z,87.11
2019-03-31T02:26:40.797Z,87.11
2019-03-31T02:27:40.791Z,87.83
2019-03-31T02:28:40.789Z,87.63
2019-03-31T02:29:40.814Z,87.63
2019-03-31T02:30:40.777Z,87.73
2019-03-31T02:31:40.755Z,88.14
2019-03-31T02:32:40.730Z,87.63
2019-03-31T02:33:40.738Z,87.98
2019-03-31T02:34:40.868Z,87.15
2019-03-31T02:35:40.749Z,87.46
2019-03-31T02:36:40.700Z,87.63
2019-03-31T02:37:40.697Z,87.05
2019-03-31T02:38:40.675Z,87.56
2019-03-31T02:39:40.668Z,87.98
2019-03-31T02:40:40.681Z,87.87
2019-03-31T02:41:40.686Z,87.56
2019-03-31T02:42:40.675Z,87.66
2019-03-31T02:43:40.716Z,87.87
2019-03-31T02:44:40.615Z,87.77
2019-03-31T02:45:40.606Z,87.66
2019-03-31T02:46:40.581Z,87.56
2019-03-31T02:47:40.603Z,87.46
2019-03-31T02:48:40.568Z,86.94
2019-03-31T02:49:40.592Z,87.15
2019-03-31T02:50:40.551Z,87.01
2019-03-31T02:51:40.587Z,87.66
2019-03-31T02:52:40.519Z,87.35
2019-03-31T02:53:40.558Z,87.26
2019-03-31T02:54:40.538Z,87.05
2019-03-31T02:55:40.513Z,87.15
2019-03-31T02:56:40.646Z,87.15
2019-03-31T02:57:40.482Z,86.94
2019-03-31T02:58:40.459Z,87.87
2019-03-31T02:59:40.466Z,87.35
2019-03-31T03:00:40.473Z,87.05
2019-03-31T03:01:40.455Z,86.94
2019-03-31T03:02:42.500Z,87.35
2019-03-31T03:03:40.407Z,87.56
2019-03-31T03:04:40.466Z,87.77
2019-03-31T03:05:40.405Z,87.66
2019-03-31T03:06:40.406Z,87.46
2019-03-31T03:07:40.380Z,87.46
2019-03-31T03:08:40.351Z,87.05
2019-03-31T03:09:40.382Z,87.35
2019-03-31T03:10:40.345Z,87.56
2019-03-31T03:11:40.351Z,87.46
2019-03-31T03:12:40.312Z,87.56
2019-03-31T03:13:40.313Z,87.26
2019-03-31T03:14:40.302Z,87.35
2019-03-31T03:15:40.278Z,87.15
2019-03-31T03:16:40.267Z,87.15
2019-03-31T03:17:40.281Z,87.26
2019-03-31T03:18:40.276Z,87.05
2019-03-31T03:19:40.250Z,87.35
2019-03-31T03:20:40.225Z,87.26
2019-03-31T03:21:40.213Z,86.74
2019-03-31T03:22:40.224Z,87.26
2019-03-31T03:23:40.191Z,87.26
2019-03-31T03:24:40.175Z,87.15
2019-03-31T03:25:55.043Z,87.26
2019-03-31T03:26:41.170Z,87.05
2019-03-31T03:27:40.172Z,87.05
2019-03-31T03:28:40.157Z,86.60
2019-03-31T03:29:40.121Z,87.73
2019-03-31T03:30:40.208Z,87.56
2019-03-31T03:31:40.106Z,87.98
2019-03-31T03:33:00.169Z,87.77
2019-03-31T03:33:41.111Z,87.87
2019-03-31T03:34:40.102Z,87.98
2019-03-31T03:35:40.067Z,88.08
2019-03-31T03:36:43.177Z,88.29
2019-03-31T03:37:40.041Z,88.18
2019-03-31T03:38:40.043Z,88.29
2019-03-31T03:39:40.069Z,88.39
2019-03-31T03:40:40.042Z,88.70
2019-03-31T03:41:40.030Z,89.42
2019-03-31T03:42:40.059Z,89.62
2019-03-31T03:43:54.056Z,89.32
2019-03-31T03:44:40.990Z,90.97
2019-03-31T03:45:39.961Z,90.97
2019-03-31T03:46:39.950Z,92.10
2019-03-31T03:47:39.993Z,92.21
2019-03-31T03:48:39.938Z,92.61
2019-03-31T03:49:39.908Z,93.03
2019-03-31T03:50:39.940Z,93.75
2019-03-31T03:51:39.909Z,92.86
2019-03-31T03:52:39.872Z,93.69
2019-03-31T03:53:39.867Z,93.90
2019-03-31T03:54:39.870Z,94.10
2019-03-31T03:55:39.842Z,94.21
2019-03-31T03:56:39.864Z,93.90
2019-03-31T03:57:39.831Z,94.21
2019-03-31T03:58:39.816Z,94.10
2019-03-31T03:59:39.806Z,93.79
2019-03-31T04:00:39.794Z,94.00
2019-03-31T04:01:39.798Z,93.90
2019-03-31T04:02:39.799Z,93.79
2019-03-31T04:03:39.755Z,94.00
2019-03-31T04:04:39.749Z,93.49
2019-03-31T04:05:39.731Z,93.38
2019-03-31T04:06:39.732Z,93.79
2019-03-31T04:07:39.736Z,93.49
2019-03-31T04:08:39.716Z,93.59
2019-03-31T04:09:39.700Z,93.49
2019-03-31T04:10:39.681Z,93.49
2019-03-31T04:11:39.678Z,93.18
2019-03-31T04:12:39.730Z,92.86
2019-03-31T04:13:39.654Z,93.18
2019-03-31T04:14:39.643Z,92.55
2019-03-31T04:15:39.632Z,92.46
2019-03-31T04:16:39.682Z,92.66
2019-03-31T04:17:39.607Z,91.83
2019-03-31T04:18:39.660Z,92.25
2019-03-31T04:19:39.612Z,91.94
2019-03-31T04:20:39.858Z,91.63
2019-03-31T04:21:39.567Z,92.35
2019-03-31T04:22:39.560Z,92.35
2019-03-31T04:23:39.562Z,92.21
2019-03-31T04:24:40.049Z,92.14
2019-03-31T04:25:39.579Z,91.83
2019-03-31T04:26:39.546Z,91.63
2019-03-31T04:27:39.539Z,91.63
2019-03-31T04:28:39.537Z,91.01
2019-03-31T04:29:39.488Z,91.11
2019-03-31T04:30:39.507Z,90.91
2019-03-31T04:31:39.475Z,90.80
2019-03-31T04:32:39.442Z,91.01
2019-03-31T04:33:50.611Z,90.91
2019-03-31T04:34:40.449Z,90.80
2019-03-31T04:35:39.421Z,90.91
2019-03-31T04:36:39.434Z,90.49
2019-03-31T04:37:39.403Z,90.80
2019-03-31T04:38:39.379Z,89.56
2019-03-31T04:39:39.378Z,89.67
2019-03-31T04:40:39.381Z,89.46
2019-03-31T04:41:39.355Z,89.46
2019-03-31T04:42:39.400Z,89.46
2019-03-31T04:43:39.332Z,89.67
2019-03-31T04:44:39.395Z,88.95
2019-03-31T04:45:39.341Z,88.59
2019-03-31T04:46:39.309Z,88.53
2019-03-31T04:47:39.293Z,88.53
2019-03-31T04:48:39.342Z,87.60
2019-03-31T04:49:39.263Z,87.71
2019-03-31T04:50:39.264Z,87.08
2019-03-31T04:51:39.238Z,87.60
2019-03-31T04:52:39.244Z,87.40
2019-03-31T04:53:39.230Z,86.05
2019-03-31T04:54:39.256Z,86.57
2019-03-31T04:55:39.210Z,86.78
2019-03-31T04:56:39.198Z,86.05
2019-03-31T04:57:39.177Z,85.75
2019-03-31T04:58:39.173Z,85.85
2019-03-31T04:59:39.161Z,85.33
2019-03-31T05:00:39.166Z,85.44
2019-03-31T05:01:39.136Z,85.44
2019-03-31T05:02:39.118Z,85.54
2019-03-31T05:03:39.107Z,85.54
2019-03-31T05:04:39.104Z,85.75
2019-03-31T05:05:39.110Z,85.54
2019-03-31T05:06:39.077Z,84.41
2019-03-31T05:07:39.077Z,84.30
2019-03-31T05:08:39.066Z,83.99
2019-03-31T05:09:39.062Z,84.34
2019-03-31T05:10:39.044Z,83.62
2019-03-31T05:11:39.045Z,83.93
2019-03-31T05:12:39.018Z,83.83
2019-03-31T05:13:39.008Z,83.72
2019-03-31T05:14:39.011Z,83.51
2019-03-31T05:15:38.988Z,82.48
2019-03-31T05:16:38.969Z,83.41
2019-03-31T05:17:38.981Z,83.31
2019-03-31T05:18:38.982Z,82.69
2019-03-31T05:19:38.946Z,82.79
2019-03-31T05:20:38.954Z,82.69
2019-03-31T05:21:38.919Z,83.00
2019-03-31T05:22:38.938Z,83.04
2019-03-31T05:23:38.914Z,83.45
2019-03-31T05:24:38.885Z,83.41
2019-03-31T05:25:38.894Z,83.20
2019-03-31T05:26:38.868Z,83.45
2019-03-31T05:27:38.860Z,83.14
2019-03-31T05:28:38.861Z,83.34
2019-03-31T05:29:38.830Z,82.83
2019-03-31T05:30:38.816Z,82.93
2019-03-31T05:31:38.810Z,82.42
2019-03-31T05:32:38.814Z,82.73
2019-03-31T05:33:38.809Z,82.73
2019-03-31T05:34:38.792Z,82.21
2019-03-31T05:35:38.806Z,82.83
2019-03-31T05:36:38.860Z,83.14
2019-03-31T05:37:50.257Z,82.93
2019-03-31T05:38:39.763Z,82.73
2019-03-31T05:39:38.723Z,83.04
2019-03-31T05:40:38.723Z,82.21
2019-03-31T05:41:38.703Z,82.83
2019-03-31T05:42:38.695Z,82.62
2019-03-31T05:43:38.696Z,83.25
2019-03-31T05:44:38.691Z,82.45
2019-03-31T05:45:38.677Z,82.93
2019-03-31T05:46:38.661Z,82.97
2019-03-31T05:47:38.644Z,82.52
2019-03-31T05:48:38.632Z,82.93
2019-03-31T05:49:38.639Z,82.76
2019-03-31T05:50:38.634Z,82.87
2019-03-31T05:51:38.683Z,82.73
2019-03-31T05:52:38.618Z,82.45
2019-03-31T05:53:38.572Z,83.14
2019-03-31T05:54:38.571Z,83.39
2019-03-31T05:55:38.556Z,83.39
2019-03-31T05:56:38.590Z,83.55
2019-03-31T05:57:38.588Z,83.65
2019-03-31T05:58:38.517Z,83.49
2019-03-31T05:59:38.507Z,83.28
2019-03-31T06:00:38.495Z,84.11
2019-03-31T06:01:38.509Z,82.56
2019-03-31T06:02:38.610Z,83.49
2019-03-31T06:03:38.463Z,84.00
2019-03-31T06:04:38.452Z,83.28
2019-03-31T06:05:38.497Z,83.45
2019-03-31T06:06:38.435Z,83.80
2019-03-31T06:07:38.425Z,83.65
2019-03-31T06:08:38.444Z,83.65
2019-03-31T06:09:38.405Z,83.80
2019-03-31T06:10:38.392Z,83.80
2019-03-31T06:11:38.382Z,83.86
2019-03-31T06:12:38.369Z,83.86
2019-03-31T06:13:38.383Z,83.59
2019-03-31T06:14:38.380Z,83.90
2019-03-31T06:15:38.341Z,84.69
2019-03-31T06:16:38.334Z,83.34
2019-03-31T06:17:38.321Z,83.59
2019-03-31T06:18:38.306Z,83.34
2019-03-31T06:19:38.323Z,83.70
2019-03-31T06:20:38.284Z,83.49
2019-03-31T06:21:38.272Z,83.59
2019-03-31T06:22:38.265Z,83.65
2019-03-31T06:23:38.251Z,83.65
2019-03-31T06:24:38.269Z,83.86
2019-03-31T06:25:38.256Z,83.70
2019-03-31T06:26:38.233Z,83.45
2019-03-31T06:27:38.223Z,83.76
2019-03-31T06:28:38.203Z,83.55
2019-03-31T06:29:38.185Z,82.83
2019-03-31T06:30:38.190Z,83.25
2019-03-31T06:31:38.190Z,83.34
2019-03-31T06:32:38.156Z,83.14
2019-03-31T06:33:38.186Z,83.55
2019-03-31T06:34:47.536Z,82.83
2019-03-31T06:35:39.140Z,82.62
2019-03-31T06:36:38.108Z,81.90
2019-03-31T06:37:38.125Z,82.07
2019-03-31T06:38:38.089Z,82.07
2019-03-31T06:39:38.090Z,82.07
2019-03-31T06:40:38.079Z,82.17
2019-03-31T06:41:38.066Z,82.28
2019-03-31T06:42:38.173Z,81.45
2019-03-31T06:43:38.037Z,80.93
2019-03-31T06:44:38.351Z,81.04
2019-03-31T06:45:38.015Z,80.62
2019-03-31T06:46:38.003Z,80.11
2019-03-31T06:47:38.025Z,80.21
2019-03-31T06:48:38.092Z,79.35
2019-03-31T06:49:38.063Z,79.35
2019-03-31T06:50:37.963Z,79.28
2019-03-31T06:51:37.949Z,79.38
2019-03-31T06:52:37.942Z,79.28
2019-03-31T06:53:37.958Z,79.45
2019-03-31T06:54:37.924Z,79.14
2019-03-31T06:55:37.908Z,79.35
2019-03-31T06:56:37.903Z,79.14
2019-03-31T06:57:37.902Z,79.35
2019-03-31T06:58:37.897Z,78.69
2019-03-31T06:59:37.922Z,78.42
2019-03-31T07:00:37.869Z,78.01
2019-03-31T07:01:37.857Z,78.69
2019-03-31T07:02:37.885Z,79.00
2019-03-31T07:03:37.837Z,78.90
2019-03-31T07:04:37.877Z,78.59
2019-03-31T07:05:37.957Z,78.18
2019-03-31T07:06:38.045Z,76.84
2019-03-31T07:07:37.820Z,76.70
2019-03-31T07:08:37.989Z,77.01
2019-03-31T07:09:38.689Z,76.59
2019-03-31T07:10:37.919Z,76.90
2019-03-31T07:11:37.740Z,74.63
2019-03-31T07:12:37.727Z,75.15
2019-03-31T07:13:37.723Z,75.09
2019-03-31T07:14:37.738Z,75.09
2019-03-31T07:15:37.695Z,74.98
2019-03-31T07:16:37.842Z,75.09
2019-03-31T07:17:37.722Z,75.70
2019-03-31T07:18:37.656Z,74.95
2019-03-31T07:19:37.647Z,73.60
2019-03-31T07:20:37.728Z,74.22
2019-03-31T07:21:37.644Z,73.40
2019-03-31T07:22:37.631Z,72.78
2019-03-31T07:23:37.610Z,72.47
2019-03-31T07:24:37.612Z,72.37
2019-03-31T07:25:37.596Z,72.67
2019-03-31T07:26:37.600Z,72.16
2019-03-31T07:27:37.594Z,71.75
2019-03-31T07:28:37.650Z,71.55
2019-03-31T07:29:37.549Z,70.79
2019-03-31T07:30:37.541Z,71.00
2019-03-31T07:31:37.537Z,70.17
2019-03-31T07:32:37.523Z,69.45
2019-03-31T07:33:37.494Z,69.35
2019-03-31T07:34:37.567Z,69.35
2019-03-31T07:35:39.017Z,70.37
2019-03-31T07:36:37.468Z,70.37
2019-03-31T07:37:47.086Z,69.86
2019-03-31T07:38:39.612Z,69.96
2019-03-31T07:39:37.530Z,69.24
2019-03-31T07:40:37.634Z,68.93
2019-03-31T07:41:37.408Z,67.90
2019-03-31T07:42:37.557Z,69.24
2019-03-31T07:43:37.474Z,67.70
2019-03-31T07:44:37.387Z,67.90
2019-03-31T07:45:37.416Z,67.49
2019-03-31T07:46:37.433Z,68.93
2019-03-31T07:47:37.369Z,69.24
2019-03-31T07:48:37.840Z,69.42
2019-03-31T07:49:37.354Z,69.24
2019-03-31T07:50:37.342Z,68.70
2019-03-31T07:51:37.686Z,68.39
2019-03-31T07:52:37.294Z,68.80
2019-03-31T07:53:37.301Z,68.49
2019-03-31T07:54:37.285Z,68.35
2019-03-31T07:55:37.300Z,67.94
2019-03-31T07:56:37.305Z,68.35
2019-03-31T07:57:37.258Z,67.66
2019-03-31T07:58:37.220Z,67.94
2019-03-31T07:59:37.220Z,68.46
2019-03-31T08:00:37.202Z,67.33
2019-03-31T08:01:37.266Z,66.74
2019-03-31T08:02:37.224Z,67.94
2019-03-31T08:03:37.170Z,65.81
2019-03-31T08:04:37.162Z,65.78
2019-03-31T08:05:37.749Z,65.40
2019-03-31T08:06:37.138Z,65.30
2019-03-31T08:07:37.175Z,66.12
2019-03-31T08:08:37.111Z,66.33
2019-03-31T08:09:37.107Z,65.30
2019-03-31T08:10:37.090Z,65.09
2019-03-31T08:11:37.083Z,65.19
2019-03-31T08:12:37.080Z,65.09
2019-03-31T08:13:37.080Z,65.09
2019-03-31T08:14:37.049Z,65.92
2019-03-31T08:15:37.054Z,65.78
2019-03-31T08:16:37.023Z,65.19
2019-03-31T08:17:37.021Z,65.26
2019-03-31T08:18:37.034Z,65.40
2019-03-31T08:19:36.995Z,65.50
2019-03-31T08:20:36.978Z,65.81
2019-03-31T08:21:36.971Z,65.61
2019-03-31T08:22:36.968Z,64.27
2019-03-31T08:23:36.993Z,63.78
2019-03-31T08:24:36.935Z,64.29
2019-03-31T08:25:36.927Z,64.71
2019-03-31T08:26:36.917Z,65.22
2019-03-31T08:27:36.927Z,65.84
2019-03-31T08:28:36.925Z,65.43
2019-03-31T08:29:36.911Z,66.12
2019-03-31T08:30:36.866Z,65.40
2019-03-31T08:31:36.856Z,64.89
2019-03-31T08:32:36.860Z,64.17
2019-03-31T08:33:36.848Z,64.68
2019-03-31T08:34:36.879Z,63.85
2019-03-31T08:35:47.360Z,63.75
2019-03-31T08:36:37.808Z,62.62
2019-03-31T08:37:36.799Z,60.87
2019-03-31T08:38:36.782Z,61.69
2019-03-31T08:39:36.765Z,62.21
2019-03-31T08:40:36.837Z,62.72
2019-03-31T08:41:36.778Z,61.80
2019-03-31T08:42:36.742Z,61.28
2019-03-31T08:43:36.731Z,60.87
2019-03-31T08:44:36.711Z,60.97
2019-03-31T08:45:36.740Z,59.12
2019-03-31T08:46:36.835Z,58.19
2019-03-31T08:47:36.677Z,58.40
2019-03-31T08:48:36.698Z,59.14
2019-03-31T08:49:36.676Z,59.14
2019-03-31T08:50:36.666Z,59.01
2019-03-31T08:51:36.633Z,59.63
2019-03-31T08:52:36.647Z,59.01
2019-03-31T08:53:36.655Z,59.33
2019-03-31T08:54:36.607Z,58.19
2019-03-31T08:55:36.590Z,58.01
2019-03-31T08:56:36.611Z,57.98
2019-03-31T08:57:36.587Z,58.09
2019-03-31T08:58:36.582Z,57.47
2019-03-31T08:59:36.581Z,57.98
2019-03-31T09:00:36.537Z,56.82
2019-03-31T09:01:36.524Z,58.09
2019-03-31T09:02:36.561Z,58.47
2019-03-31T09:03:36.705Z,56.62
2019-03-31T09:04:36.497Z,55.07
2019-03-31T09:05:36.486Z,54.35
2019-03-31T09:06:36.503Z,54.05
2019-03-31T09:07:36.460Z,53.63
2019-03-31T09:08:36.447Z,54.35
2019-03-31T09:09:36.454Z,54.15
2019-03-31T09:10:36.480Z,54.46
2019-03-31T09:11:36.467Z,55.18
2019-03-31T09:12:36.411Z,56.00
2019-03-31T09:13:36.416Z,56.41
2019-03-31T09:14:36.391Z,57.14
2019-03-31T09:15:36.400Z,56.93
2019-03-31T09:16:36.380Z,56.82
2019-03-31T09:17:36.389Z,57.03
2019-03-31T09:18:36.339Z,56.31
2019-03-31T09:19:36.361Z,56.52
2019-03-31T09:20:36.360Z,57.44
2019-03-31T09:21:36.327Z,56.31
2019-03-31T09:22:36.294Z,56.41
2019-03-31T09:23:36.322Z,56.72
2019-03-31T09:24:36.273Z,56.62
2019-03-31T09:25:36.259Z,56.41
2019-03-31T09:26:36.267Z,56.82
2019-03-31T09:27:36.267Z,58.16
2019-03-31T09:28:36.273Z,57.14
2019-03-31T09:29:36.241Z,56.82
2019-03-31T09:30:36.255Z,55.80
2019-03-31T09:31:36.208Z,55.90
2019-03-31T09:32:36.195Z,54.15
2019-03-31T09:33:39.282Z,53.92
2019-03-31T09:34:36.232Z,53.12
2019-03-31T09:35:36.148Z,53.33
2019-03-31T09:36:36.145Z,53.02
2019-03-31T09:37:36.160Z,53.43
2019-03-31T09:38:36.143Z,54.46
2019-03-31T09:39:36.135Z,54.43
2019-03-31T09:40:36.145Z,54.43
2019-03-31T09:41:36.082Z,53.02
2019-03-31T09:42:36.088Z,52.37
2019-03-31T09:43:36.071Z,53.63
2019-03-31T09:44:36.045Z,52.89
2019-03-31T09:45:36.034Z,53.20
2019-03-31T09:46:36.035Z,53.09
2019-03-31T09:47:36.095Z,52.48
2019-03-31T09:48:36.089Z,52.27
2019-03-31T09:49:36.163Z,52.58
2019-03-31T09:50:35.976Z,53.30
2019-03-31T09:51:35.975Z,53.28
2019-03-31T09:52:35.967Z,52.66
2019-03-31T09:53:35.948Z,52.66
2019-03-31T09:54:36.011Z,52.45
2019-03-31T09:55:35.942Z,52.14
2019-03-31T09:56:35.947Z,51.04
2019-03-31T09:57:35.930Z,51.04
2019-03-31T09:58:35.927Z,50.52
2019-03-31T09:59:35.879Z,48.98
2019-03-31T10:00:35.897Z,49.08
2019-03-31T10:01:35.869Z,49.18
2019-03-31T10:02:35.883Z,48.88
2019-03-31T10:03:35.857Z,49.49
2019-03-31T10:04:35.819Z,50.09
2019-03-31T10:05:35.827Z,49.26
2019-03-31T10:06:36.093Z,48.72
2019-03-31T10:07:35.793Z,48.63
2019-03-31T10:08:35.777Z,48.83
2019-03-31T10:09:35.791Z,48.11
2019-03-31T10:10:35.760Z,47.49
2019-03-31T10:11:35.750Z,48.11
2019-03-31T10:12:35.795Z,48.52
2019-03-31T10:13:35.727Z,48.81
2019-03-31T10:14:35.716Z,46.86
2019-03-31T10:15:35.746Z,45.72
2019-03-31T10:16:35.734Z,43.98
2019-03-31T10:17:35.681Z,44.80
2019-03-31T10:18:35.670Z,45.42
2019-03-31T10:19:35.706Z,46.96
2019-03-31T10:20:35.661Z,46.75
2019-03-31T10:21:35.634Z,47.16
2019-03-31T10:22:35.654Z,46.96
2019-03-31T10:23:35.617Z,46.55
2019-03-31T10:24:35.652Z,46.34
2019-03-31T10:25:35.624Z,46.65
2019-03-31T10:26:35.593Z,46.22
2019-03-31T10:27:35.569Z,45.27
2019-03-31T10:28:35.569Z,45.07
2019-03-31T10:29:35.548Z,44.68
2019-03-31T10:30:35.570Z,45.07
2019-03-31T10:31:35.530Z,44.78
2019-03-31T10:32:35.538Z,46.14
2019-03-31T10:33:35.540Z,46.65
2019-03-31T10:34:35.549Z,47.19
2019-03-31T10:35:35.515Z,46.96
2019-03-31T10:36:44.281Z,46.96
2019-03-31T10:37:36.500Z,45.91
2019-03-31T10:38:35.489Z,44.78
2019-03-31T10:39:35.433Z,44.57
2019-03-31T10:40:35.423Z,44.68
2019-03-31T10:41:35.412Z,45.60
2019-03-31T10:42:35.413Z,45.09
2019-03-31T10:43:35.394Z,46.62
2019-03-31T10:44:35.440Z,46.22
2019-03-31T10:45:35.423Z,46.96
2019-03-31T10:46:35.364Z,47.47
2019-03-31T10:47:35.346Z,48.68
2019-03-31T10:48:35.338Z,48.58
2019-03-31T10:49:35.353Z,46.73
2019-03-31T10:50:35.315Z,46.73
2019-03-31T10:51:35.298Z,47.24
2019-03-31T10:52:35.302Z,47.24
2019-03-31T10:53:35.389Z,47.53
2019-03-31T10:54:35.295Z,46.91
2019-03-31T10:55:35.296Z,47.09
2019-03-31T10:56:35.245Z,46.17
2019-03-31T10:57:35.241Z,45.36
2019-03-31T10:58:35.227Z,44.74
2019-03-31T10:59:35.250Z,44.64
2019-03-31T11:00:35.262Z,46.20
2019-03-31T11:01:35.292Z,46.09
2019-03-31T11:02:35.205Z,46.62
2019-03-31T11:03:35.167Z,46.94
2019-03-31T11:04:35.195Z,46.94
2019-03-31T11:05:35.174Z,46.20
2019-03-31T11:06:35.132Z,46.50
2019-03-31T11:07:35.169Z,46.61
2019-03-31T11:08:35.109Z,44.65
2019-03-31T11:09:35.101Z,44.04
2019-03-31T11:10:35.121Z,42.71
2019-03-31T11:11:35.102Z,43.01
2019-03-31T11:12:35.073Z,42.71
2019-03-31T11:13:35.083Z,43.20
2019-03-31T11:14:35.045Z,52.82
2019-03-31T11:15:35.043Z,50.34
2019-03-31T11:16:35.026Z,45.18
2019-03-31T11:17:35.010Z,41.19
2019-03-31T11:18:35.043Z,42.83
2019-03-31T11:19:35.003Z,41.99
2019-03-31T11:20:34.988Z,43.02
2019-03-31T11:21:34.978Z,43.32
2019-03-31T11:22:35.012Z,43.94
2019-03-31T11:23:34.975Z,43.53
2019-03-31T11:24:34.976Z,42.81
2019-03-31T11:25:34.954Z,43.53
2019-03-31T11:26:34.918Z,43.43
2019-03-31T11:27:34.971Z,43.61
2019-03-31T11:28:34.907Z,44.35
2019-03-31T11:29:34.974Z,44.12
2019-03-31T11:30:34.899Z,43.30
2019-03-31T11:31:34.873Z,42.69
2019-03-31T11:32:34.863Z,42.79
2019-03-31T11:33:34.894Z,42.99
2019-03-31T11:34:34.831Z,43.63
2019-03-31T11:35:34.830Z,44.04
2019-03-31T11:36:34.836Z,43.04
2019-03-31T11:37:34.831Z,43.85
2019-03-31T11:38:34.801Z,43.34
2019-03-31T11:39:34.907Z,46.09
2019-03-31T11:40:34.832Z,44.12
2019-03-31T11:41:34.820Z,46.76
2019-03-31T11:42:34.773Z,44.08
2019-03-31T11:43:34.733Z,44.17
2019-03-31T11:44:34.735Z,43.85
2019-03-31T11:45:34.723Z,44.96
2019-03-31T11:46:34.708Z,43.22
2019-03-31T11:47:34.747Z,44.32
2019-03-31T11:48:34.712Z,44.32
2019-03-31T11:49:34.684Z,42.79
2019-03-31T11:50:34.662Z,43.82
2019-03-31T11:51:34.649Z,43.82
2019-03-31T11:52:34.634Z,44.32
2019-03-31T11:53:34.646Z,42.26
2019-03-31T11:54:34.623Z,43.00
2019-03-31T11:55:34.603Z,42.20
2019-03-31T11:56:34.604Z,42.96
2019-03-31T11:57:34.597Z,42.50
2019-03-31T11:58:34.586Z,42.40
2019-03-31T11:59:34.570Z,42.32
2019-03-31T12:00:34.567Z,40.68
2019-03-31T12:01:34.548Z,41.19
2019-03-31T12:02:34.564Z,43.44
2019-03-31T12:03:34.550Z,42.10
2019-03-31T12:04:34.514Z,42.61
2019-03-31T12:05:34.567Z,42.61
2019-03-31T12:06:34.486Z,42.07
2019-03-31T12:07:46.055Z,42.36
2019-03-31T12:08:35.495Z,41.03
2019-03-31T12:09:34.489Z,40.01
2019-03-31T12:10:34.579Z,39.90
2019-03-31T12:11:34.431Z,41.77
2019-03-31T12:12:34.424Z,41.24
2019-03-31T12:13:34.409Z,41.75
2019-03-31T12:14:34.431Z,42.67
2019-03-31T12:15:34.389Z,42.96
2019-03-31T12:16:34.552Z,41.22
2019-03-31T12:17:34.374Z,41.30
2019-03-31T12:18:34.364Z,41.71
2019-03-31T12:19:34.348Z,41.61
2019-03-31T12:20:34.366Z,41.79
2019-03-31T12:21:34.359Z,40.26
2019-03-31T12:22:34.325Z,38.95
2019-03-31T12:23:34.411Z,39.99
2019-03-31T12:24:34.322Z,41.61
2019-03-31T12:25:34.277Z,41.40
2019-03-31T12:26:34.292Z,40.87
2019-03-31T12:27:34.279Z,41.08
2019-03-31T12:28:34.325Z,41.26
2019-03-31T12:29:34.333Z,41.56
2019-03-31T12:30:34.354Z,44.84
2019-03-31T12:31:34.243Z,44.73
2019-03-31T12:32:34.250Z,42.47
2019-03-31T12:33:34.197Z,44.71
2019-03-31T12:34:34.322Z,40.94
2019-03-31T12:35:34.186Z,43.79
2019-03-31T12:36:34.173Z,42.18
2019-03-31T12:37:42.330Z,44.00
2019-03-31T12:38:35.191Z,42.55
2019-03-31T12:39:34.140Z,42.35
2019-03-31T12:40:34.236Z,42.04
2019-03-31T12:41:34.343Z,43.75
2019-03-31T12:42:34.162Z,42.61
2019-03-31T12:43:34.550Z,43.63
2019-03-31T12:44:34.158Z,41.69
2019-03-31T12:45:34.090Z,40.59
2019-03-31T12:46:34.052Z,44.26
2019-03-31T12:47:34.044Z,41.61
2019-03-31T12:48:34.035Z,41.41
2019-03-31T12:49:34.015Z,43.96
2019-03-31T12:50:34.081Z,39.86
2019-03-31T12:51:34.000Z,40.88
2019-03-31T12:52:46.178Z,37.92